Terminal Aerodrome Forecast
Issued by NWS Caribou, ME

Current Version | Previous Version | Text Only | Print | Product List | Glossary On
Versions: 1 2 3 4 5 6 7 8 9 10 11 12 13 14 15 16 17
000
FTUS41 KCAR 231520 AAB
TAFCAR
TAF AMD
KCAR 231520Z 2315/2412 15007KT P6SM OVC070
     FM231600 16006KT 6SM -RA OVC030
     FM231800 17010G17KT 3SM -RA BKN007 OVC025
     FM240000 16006KT 4SM BR BKN004 OVC020
     FM240700 14005KT 2SM RA BKN003 OVC008=

USA.gov is the U.S. government's official web portal to all federal, state and local government web resources and services.